Flight Track Log - Related Links

Times and Time Zones

All times are in EDT time to prevent confusion due to time zone crossing. See the ASQ5869 flight status page for this flight to view local times or setup timezone preferences in your user account.


Time Position Orientation Groundspeed Altitude Reporting Facility
EDT Latitude Longitude Course Direction KTS MPH feet Rate Location/Type
Tue 03:30:40 PM 40.0042 -82.9186 287° West 167 192 1,400  Level Indianapolis Center
Tue 03:31:29 PM 40.0108 -82.9736 279° West 190 219 2,900 1,846 Climbing Indianapolis Center
Tue 03:31:58 PM 40.0153 -83.0014 282° West 192 221 3,800 2,242 Climbing Indianapolis Center
Tue 03:33:00 PM 40.0267 -83.0764 281° West 201 231 6,300 2,323 Climbing Indianapolis Center
Tue 03:34:00 PM 40.0962 -83.3050 294° West  Level FlightAware Approximate
Tue 03:34:02 PM 40.0325 -83.1603 275° West 229 264 8,600  Level Indianapolis Center
Tue 03:35:00 PM 40.1268 -83.4102 287° West  Level FlightAware Approximate
Tue 03:35:04 PM 40.0353 -83.2453 272° West 233 268 10,400  Level Indianapolis Center
Tue 03:36:00 PM 40.1525 -83.5215 287° West  Level FlightAware Approximate
Tue 03:36:06 PM 40.0567 -83.3511 285° West 281 323 11,600  Level Indianapolis Center
Tue 03:37:08 PM 40.1044 -83.4375 306° West 294 338 13,400 2,129 Climbing Indianapolis Center
Tue 03:38:10 PM 40.1456 -83.5192 303° West 268 308 16,000 1,645 Climbing Indianapolis Center
Tue 03:39:12 PM 40.1881 -83.6019 304° West 271 312 16,800 677 Climbing Indianapolis Center
Tue 03:40:14 PM 40.2364 -83.6958 304° West 301 346 17,400 677 Climbing Indianapolis Center
Tue 03:41:16 PM 40.2869 -83.7961 303° West 323 372 18,200 1,065 Climbing Indianapolis Center
Tue 03:42:18 PM 40.3472 -83.9150 304° West 331 381 19,600 1,306 Climbing Indianapolis Center
Tue 03:43:20 PM 40.3997 -84.0178 304° West 336 387 20,900 1,152 Climbing Indianapolis Center
Tue 03:44:23 PM 40.4525 -84.1217 304° West 340 391 22,000 1,200 Climbing Indianapolis Center
Tue 03:45:25 PM 40.5053 -84.2275 303° West 345 397 23,400 1,355 Climbing Indianapolis Center
Tue 03:46:27 PM 40.5572 -84.3303 304° West 335 386 24,800 774 Climbing Indianapolis Center
Tue 03:47:29 PM 40.6092 -84.4372 303° West 345 397 25,000 97 Climbing Indianapolis Center
Tue 03:48:31 PM 40.6675 -84.5508 304° West 369 425 25,000  Level Indianapolis Center
Tue 03:49:33 PM 40.7358 -84.6919 303° West 387 445 25,000  Level Indianapolis Center
Tue 03:50:35 PM 40.7972 -84.8150 303° West 396 456 25,000  Level Indianapolis Center
Tue 03:51:37 PM 40.8569 -84.9389 303° West 398 458 25,000  Level Indianapolis Center
Tue 03:52:39 PM 40.9178 -85.0625 303° West 400 460 25,000  Level Indianapolis Center
Tue 03:53:41 PM 40.9783 -85.1861 303° West 399 459 25,000  Level Indianapolis Center
Tue 03:54:43 PM 41.0278 -85.3203 296° West 402 463 25,000  Level Indianapolis Center
Tue 03:55:45 PM 41.0767 -85.4528 296° West 400 460 25,000  Level Indianapolis Center
Tue 03:56:47 PM 41.1344 -85.6089 296° West 401 461 25,000  Level Indianapolis Center
Tue 03:57:49 PM 41.1789 -85.7483 293° West 405 466 25,000  Level Indianapolis Center
Tue 03:58:51 PM 41.2286 -85.8819 296° West 402 463 25,000 -48 Level Indianapolis Center
Tue 03:59:53 PM 41.2767 -86.0178 295° West 403 464 24,900 -290 Descending Indianapolis Center
Tue 04:00:55 PM 41.2978 -86.1664 281° West 401 461 24,400 -919 Descending Indianapolis Center
Tue 04:01:57 PM 41.3156 -86.3175 279° West 409 471 23,000 -2,234 Descending Indianapolis Center
Tue 04:03:12 PM 41.4067 -86.4625 310° West 381 438 19,300 -3,022 Descending Chicago Center
Tue 04:04:14 PM 41.4731 -86.5519 315° West 352 405 16,100 -2,710 Descending Chicago Center
Tue 04:05:16 PM 41.5392 -86.6372 316° Northwest 334 384 13,700 -1,839 Descending Chicago Center
Tue 04:06:18 PM 41.6019 -86.7219 315° West 329 379 12,300 -774 Descending Chicago Center
Tue 04:07:20 PM 41.6722 -86.7928 323° Northwest 326 375 12,100 -96 Descending Chicago Center
Tue 04:08:23 PM 41.7794 -86.8114 353° North 328 377 12,100 -480 Level Chicago Center
Tue 04:09:25 PM 41.8706 -86.8383 348° North 335 386 11,100 -968 Descending Chicago Center
Tue 04:10:27 PM 41.9172 -86.9356 303° West 319 367 10,100 -484 Descending Chicago Center
Tue 04:11:29 PM 41.9558 -87.0394 297° West 314 361 10,100 -48 Level Chicago Center
Tue 04:12:31 PM 41.9889 -87.1756 288° West 327 376 10,000 -194 Descending Chicago Center
Tue 04:13:33 PM 41.9797 -87.2794 263° West 284 327 9,700 -968 Descending Chicago Center
Tue 04:14:35 PM 41.9836 -87.3750 273° West 259 298 8,000 -1,582 Descending Chicago Center
Tue 04:15:04 PM 41.9833 -87.4333 270° West 254 292 7,300 -1,157 Descending Chicago TRACON
Tue 04:15:58 PM 41.9833 -87.5000 270° West 233 268 6,400 -1,158 Descending Chicago TRACON
Tue 04:16:58 PM 41.9833 -87.5833 270° West 220 253 5,100 -1,300 Descending Chicago TRACON
Tue 04:17:58 PM 41.9833 -87.6667 270° West 203 234 3,800 -1,300 Descending Chicago TRACON

Login

Don't have an account? Register now (free) for customized features, flight alerts, and more!